createdAt,value
2022-08-11T00:00:06.657Z,99732.82
2022-08-11T00:05:30.237Z,99731.27
2022-08-11T00:10:33.316Z,99732.26
2022-08-11T00:15:44.788Z,99732.77
2022-08-11T00:20:52.165Z,99730.58
2022-08-11T00:25:55.954Z,99731.30
2022-08-11T00:31:04.431Z,99735.21
2022-08-11T00:36:10.124Z,99731.95
2022-08-11T00:41:16.087Z,99733.57
2022-08-11T00:46:37.865Z,99735.77
2022-08-11T00:52:11.137Z,99732.83
2022-08-11T00:57:37.219Z,99732.71
2022-08-11T01:02:53.391Z,99733.81
2022-08-11T01:08:08.904Z,99732.54
2022-08-11T01:13:44.098Z,99728.46
2022-08-11T01:19:07.992Z,99724.59
2022-08-11T01:24:47.388Z,99724.95
2022-08-11T01:30:19.392Z,99730.55
2022-08-11T01:36:11.657Z,99725.45
2022-08-11T01:41:27.033Z,99725.95
2022-08-11T01:46:56.448Z,99722.23
2022-08-11T01:52:08.878Z,99725.31
2022-08-11T01:57:23.542Z,99729.80
2022-08-11T02:02:47.728Z,99723.20
2022-08-11T02:08:18.938Z,99723.62
2022-08-11T02:13:37.272Z,99716.46
2022-08-11T02:19:05.588Z,99713.04
2022-08-11T02:24:19.445Z,99714.05
2022-08-11T02:29:32.714Z,99720.02
2022-08-11T02:34:44.364Z,99715.86
2022-08-11T02:40:17.724Z,99717.79
2022-08-11T02:45:54.940Z,99721.42
2022-08-11T02:51:35.697Z,99719.54
2022-08-11T02:56:38.791Z,99716.34
2022-08-11T03:02:16.438Z,99722.05
2022-08-11T03:07:31.378Z,99719.95
2022-08-11T03:13:04.547Z,99725.02
2022-08-11T03:18:31.819Z,99721.27
2022-08-11T03:23:41.754Z,99719.85
2022-08-11T03:29:25.426Z,99724.69
2022-08-11T03:34:31.726Z,99726.50
2022-08-11T03:39:56.838Z,99726.89
2022-08-11T03:45:20.421Z,99725.26
2022-08-11T03:50:24.815Z,99724.75
2022-08-11T03:56:05.532Z,99721.72
2022-08-11T04:01:53.742Z,99721.23
2022-08-11T04:07:35.393Z,99713.80
2022-08-11T04:12:47.981Z,99713.83
2022-08-11T04:18:06.995Z,99710.98
2022-08-11T04:24:36.728Z,99710.96
2022-08-11T04:29:15.660Z,99715.41
2022-08-11T04:34:42.004Z,99717.83
2022-08-11T04:39:54.079Z,99727.05
2022-08-11T04:45:25.370Z,99728.29
2022-08-11T04:51:17.455Z,99735.16
2022-08-11T04:56:44.874Z,99737.29
2022-08-11T05:02:35.898Z,99738.77
2022-08-11T05:07:52.777Z,99736.58
2022-08-11T05:13:20.964Z,99739.02
2022-08-11T05:18:44.779Z,99735.28
2022-08-11T05:24:12.178Z,99736.79
2022-08-11T05:29:53.955Z,99737.79
2022-08-11T05:35:00.881Z,99751.11
2022-08-11T05:40:27.081Z,99750.11
2022-08-11T05:46:03.490Z,99753.48
2022-08-11T05:51:30.325Z,99761.38
2022-08-11T05:56:34.926Z,99750.39
2022-08-11T06:01:39.367Z,99756.02
2022-08-11T06:07:04.268Z,99754.85
2022-08-11T06:12:17.587Z,99757.43
2022-08-11T06:17:45.686Z,99761.55
2022-08-11T06:22:57.563Z,99763.27
2022-08-11T06:28:01.236Z,99757.70
2022-08-11T06:33:08.189Z,99756.48
2022-08-11T06:38:16.974Z,99759.91
2022-08-11T06:43:25.993Z,99756.81
2022-08-11T06:48:31.825Z,99755.77
2022-08-11T06:53:37.157Z,99750.22
2022-08-11T06:58:59.539Z,99752.55
2022-08-11T07:04:09.380Z,99751.21
2022-08-11T07:09:51.093Z,99750.48
2022-08-11T07:15:15.412Z,99744.61
2022-08-11T07:20:37.133Z,99745.14
2022-08-11T07:26:01.476Z,99746.86
2022-08-11T07:31:09.611Z,99738.27
2022-08-11T07:36:14.108Z,99734.98
2022-08-11T07:41:20.105Z,99734.44
2022-08-11T07:46:42.884Z,99731.29
2022-08-11T07:52:04.834Z,99731.49
2022-08-11T07:57:46.057Z,99726.38
2022-08-11T08:03:12.678Z,99724.17
2022-08-11T08:08:35.612Z,99720.47
2022-08-11T08:13:57.783Z,99728.28
2022-08-11T08:19:00.776Z,99728.86
2022-08-11T08:24:04.884Z,99723.15
2022-08-11T08:29:27.010Z,99720.96
2022-08-11T08:34:32.343Z,99718.52
2022-08-11T08:39:38.142Z,99712.08
2022-08-11T08:44:47.639Z,99710.60
2022-08-11T08:49:59.501Z,99706.52
2022-08-11T08:55:05.630Z,99695.85
2022-08-11T09:00:12.555Z,99691.81
2022-08-11T09:05:18.372Z,99691.61
2022-08-11T09:10:21.968Z,99686.83
2022-08-11T09:15:26.325Z,99688.00
2022-08-11T09:20:34.980Z,99683.95
2022-08-11T09:25:56.523Z,99673.20
2022-08-11T09:31:01.748Z,99676.41
2022-08-11T09:36:26.067Z,99668.10
2022-08-11T09:42:00.637Z,99673.17
2022-08-11T09:46:56.150Z,99665.39
2022-08-11T09:52:05.141Z,99665.02
2022-08-11T09:57:28.355Z,99657.26
2022-08-11T10:02:32.097Z,99649.71
2022-08-11T10:07:35.103Z,99642.17
2022-08-11T10:12:47.426Z,99635.72
2022-08-11T10:18:14.476Z,99628.02
2022-08-11T10:24:01.382Z,99625.29
2022-08-11T10:29:12.918Z,99615.81
2022-08-11T10:34:16.762Z,99598.11
2022-08-11T10:39:23.485Z,99590.21
2022-08-11T10:44:27.242Z,99590.68
2022-08-11T10:49:30.777Z,99594.77
2022-08-11T10:54:53.331Z,99587.06
2022-08-11T10:59:57.664Z,99588.80
2022-08-11T11:05:15.615Z,99598.15
2022-08-11T11:10:18.633Z,99586.45
2022-08-11T11:15:42.186Z,99581.12
2022-08-11T11:20:58.068Z,99563.92
2022-08-11T11:26:32.854Z,99556.10
2022-08-11T11:31:50.426Z,99550.40
2022-08-11T11:36:58.348Z,99549.17
2022-08-11T11:42:11.008Z,99548.83
2022-08-11T11:47:14.559Z,99544.04
2022-08-11T11:52:20.316Z,99532.91
2022-08-11T11:57:59.295Z,99528.60
2022-08-11T12:03:09.154Z,99523.15
2022-08-11T12:08:15.397Z,99524.73
2022-08-11T12:13:38.067Z,99520.62
2022-08-11T12:18:46.077Z,99515.73
2022-08-11T12:24:09.051Z,99511.61
2022-08-11T12:29:12.732Z,99512.25
2022-08-11T12:34:17.364Z,99535.36
2022-08-11T12:40:10.925Z,99533.02
2022-08-11T12:45:28.011Z,99576.29
2022-08-11T12:50:50.049Z,99594.45
2022-08-11T12:56:16.682Z,99601.19
2022-08-11T13:01:38.840Z,99611.38
2022-08-11T13:06:42.661Z,99614.44
2022-08-11T13:12:05.170Z,99610.75
2022-08-11T13:17:40.278Z,99608.48
2022-08-11T13:22:50.106Z,99611.77
2022-08-11T13:27:56.077Z,99611.60
2022-08-11T13:33:05.365Z,99613.36
2022-08-11T13:38:19.757Z,99609.43
2022-08-11T13:43:25.287Z,99614.73
2022-08-11T13:48:28.888Z,99624.42
2022-08-11T13:53:33.037Z,99616.91
2022-08-11T13:58:39.851Z,99609.98
2022-08-11T14:04:31.206Z,99600.19
2022-08-11T14:09:10.041Z,99596.79
2022-08-11T14:14:21.496Z,99597.96
2022-08-11T14:19:28.441Z,99595.76
2022-08-11T14:24:32.357Z,99582.98
2022-08-11T14:29:44.872Z,99576.19
2022-08-11T14:34:53.408Z,99575.88
2022-08-11T14:40:03.707Z,99577.51
2022-08-11T14:45:58.388Z,99574.52
2022-08-11T14:50:53.331Z,99563.20
2022-08-11T14:56:14.841Z,99555.48
2022-08-11T15:01:41.334Z,99543.54
2022-08-11T15:06:44.378Z,99554.19
2022-08-11T15:12:06.342Z,99551.34
2022-08-11T15:17:43.579Z,99541.70
2022-08-11T15:23:07.553Z,99550.83
2022-08-11T15:28:32.628Z,99558.14
2022-08-11T15:33:57.781Z,99551.80
2022-08-11T15:39:09.498Z,99547.69
2022-08-11T15:45:02.216Z,99547.68
2022-08-11T15:50:10.487Z,99547.73
2022-08-11T15:55:18.107Z,99551.17
2022-08-11T16:00:41.312Z,99545.33
2022-08-11T16:05:53.010Z,99538.65
2022-08-11T16:10:57.446Z,99531.57
2022-08-11T16:16:15.320Z,99527.89
2022-08-11T16:21:33.838Z,99532.34
2022-08-11T16:27:07.693Z,99527.59
2022-08-11T16:32:20.443Z,99534.35
2022-08-11T16:37:43.076Z,99526.76
2022-08-11T16:43:10.799Z,99530.85
2022-08-11T16:48:35.133Z,99529.15
2022-08-11T16:53:54.800Z,99530.83
2022-08-11T16:59:18.172Z,99538.36
2022-08-11T17:04:54.193Z,99539.56
2022-08-11T17:10:38.278Z,99522.80
2022-08-11T17:16:07.211Z,99522.08
2022-08-11T17:21:30.769Z,99530.87
2022-08-11T17:26:58.568Z,99536.14
2022-08-11T17:32:22.715Z,99537.77
2022-08-11T17:37:28.758Z,99531.77
2022-08-11T17:42:51.586Z,99529.23
2022-08-11T17:48:14.219Z,99534.38
2022-08-11T17:53:36.500Z,99551.71
2022-08-11T17:59:00.346Z,99560.80
2022-08-11T18:04:09.973Z,99561.48
2022-08-11T18:09:38.072Z,99555.88
2022-08-11T18:15:05.144Z,99561.54
2022-08-11T18:20:27.373Z,99563.79
2022-08-11T18:25:58.357Z,99561.96
2022-08-11T18:31:22.868Z,99569.36
2022-08-11T18:36:49.775Z,99564.79
2022-08-11T18:42:13.347Z,99557.46
2022-08-11T18:47:55.423Z,99558.58
2022-08-11T18:53:20.455Z,99562.09
2022-08-11T18:58:47.452Z,99574.69
2022-08-11T19:04:17.384Z,99572.42
2022-08-11T19:09:44.964Z,99574.23
2022-08-11T19:15:09.256Z,99579.11
2022-08-11T19:20:35.256Z,99585.27
2022-08-11T19:25:58.811Z,99586.64
2022-08-11T19:31:21.552Z,99576.20
2022-08-11T19:36:45.196Z,99570.54
2022-08-11T19:42:07.591Z,99564.09
2022-08-11T19:47:30.472Z,99565.79
2022-08-11T19:52:54.654Z,99561.95
2022-08-11T19:58:16.928Z,99560.99
2022-08-11T20:03:38.943Z,99559.52
2022-08-11T20:09:03.138Z,99553.64
2022-08-11T20:14:28.980Z,99547.46
2022-08-11T20:19:56.232Z,99556.92
2022-08-11T20:25:18.213Z,99560.00
2022-08-11T20:30:40.020Z,99558.08
2022-08-11T20:36:01.933Z,99557.30
2022-08-11T20:41:25.039Z,99560.86
2022-08-11T20:46:48.658Z,99562.45
2022-08-11T20:52:11.756Z,99565.15
2022-08-11T20:57:59.945Z,99564.91
2022-08-11T21:03:36.373Z,99567.68
2022-08-11T21:09:02.111Z,99570.55
2022-08-11T21:14:30.731Z,99571.79
2022-08-11T21:20:00.565Z,99573.34
2022-08-11T21:25:31.076Z,99580.73
2022-08-11T21:30:57.690Z,99579.98
2022-08-11T21:36:21.008Z,99584.13
2022-08-11T21:41:49.004Z,99577.83
2022-08-11T21:47:14.919Z,99589.54
2022-08-11T21:52:39.386Z,99591.57
2022-08-11T21:58:02.979Z,99595.73
2022-08-11T22:03:25.201Z,99597.55
2022-08-11T22:08:47.789Z,99595.23
2022-08-11T22:14:10.310Z,99600.75
2022-08-11T22:19:33.924Z,99607.91
2022-08-11T22:24:57.155Z,99600.52
2022-08-11T22:30:19.328Z,99601.90
2022-08-11T22:35:42.301Z,99598.02
2022-08-11T22:41:03.643Z,99586.21
2022-08-11T22:46:26.768Z,99585.77
2022-08-11T22:51:48.650Z,99587.55
2022-08-11T22:57:10.209Z,99587.34
2022-08-11T23:02:33.516Z,99579.58
2022-08-11T23:07:57.168Z,99571.35
2022-08-11T23:13:22.322Z,99572.90
2022-08-11T23:18:45.588Z,99566.02
2022-08-11T23:24:08.386Z,99561.67
2022-08-11T23:29:30.996Z,99560.08
2022-08-11T23:35:03.513Z,99555.09
2022-08-11T23:40:41.612Z,99542.88
2022-08-11T23:46:03.629Z,99544.48
2022-08-11T23:51:26.532Z,99540.00
2022-08-11T23:57:03.133Z,99534.55
